createdAt,value
2023-05-21T00:02:18.749Z,18.38
2023-05-21T00:04:45.634Z,17.75
2023-05-21T00:07:12.727Z,18.67
2023-05-21T00:09:39.575Z,21.08
2023-05-21T00:12:09.633Z,18.90
2023-05-21T00:14:36.488Z,17.58
2023-05-21T00:17:02.911Z,20.17
2023-05-21T00:19:29.389Z,18.48
2023-05-21T00:21:56.036Z,19.25
2023-05-21T00:24:22.479Z,20.50
2023-05-21T00:26:48.889Z,20.20
2023-05-21T00:29:15.328Z,19.10
2023-05-21T00:31:41.770Z,19.02
2023-05-21T00:34:08.347Z,18.02
2023-05-21T00:36:34.847Z,19.67
2023-05-21T00:39:02.375Z,18.27
2023-05-21T00:41:30.283Z,19.42
2023-05-21T00:43:57.261Z,18.98
2023-05-21T00:46:23.963Z,18.58
2023-05-21T00:48:50.939Z,18.83
2023-05-21T00:51:18.590Z,18.63
2023-05-21T00:53:46.643Z,20.88
2023-05-21T00:56:13.592Z,24.25
2023-05-21T00:58:40.943Z,21.10
2023-05-21T01:01:07.456Z,18.63
2023-05-21T01:03:38.728Z,20.23
2023-05-21T01:06:06.088Z,19.52
2023-05-21T01:08:34.630Z,18.98
2023-05-21T01:11:03.210Z,18.60
2023-05-21T01:13:31.146Z,18.17
2023-05-21T01:15:59.178Z,19.80
2023-05-21T01:18:26.219Z,19.15
2023-05-21T01:20:53.597Z,19.88
2023-05-21T01:23:20.582Z,18.75
2023-05-21T01:25:47.486Z,19.38
2023-05-21T01:28:14.085Z,18.83
2023-05-21T01:30:42.765Z,21.73
2023-05-21T01:33:26.066Z,19.50
2023-05-21T01:36:04.224Z,20.02
2023-05-21T01:38:41.256Z,17.58
2023-05-21T01:41:11.141Z,20.52
2023-05-21T01:43:41.053Z,19.48
2023-05-21T01:46:10.306Z,19.95
2023-05-21T01:48:38.437Z,19.45
2023-05-21T01:51:06.101Z,19.77
2023-05-21T01:53:32.605Z,20.98
2023-05-21T01:55:59.315Z,20.25
2023-05-21T01:58:25.770Z,20.60
2023-05-21T02:00:52.237Z,22.20
2023-05-21T02:03:20.620Z,21.90
2023-05-21T02:05:47.288Z,21.33
2023-05-21T02:08:15.064Z,22.10
2023-05-21T02:10:41.623Z,21.08
2023-05-21T02:13:08.117Z,22.02
2023-05-21T02:15:34.899Z,21.17
2023-05-21T02:18:01.894Z,21.13
2023-05-21T02:20:28.388Z,21.00
2023-05-21T02:22:54.797Z,21.25
2023-05-21T02:25:21.215Z,21.13
2023-05-21T02:27:47.731Z,22.17
2023-05-21T02:30:16.026Z,22.00
2023-05-21T02:32:43.503Z,23.13
2023-05-21T02:35:11.606Z,23.15
2023-05-21T02:37:40.371Z,22.75
2023-05-21T02:40:07.868Z,23.73
2023-05-21T02:42:34.544Z,22.00
2023-05-21T02:45:00.946Z,23.90
2023-05-21T02:47:27.385Z,25.13
2023-05-21T02:49:53.955Z,24.90
2023-05-21T02:52:23.922Z,24.73
2023-05-21T02:54:50.423Z,24.25
2023-05-21T02:57:18.315Z,23.55
2023-05-21T02:59:45.588Z,24.30
2023-05-21T03:02:12.506Z,24.30
2023-05-21T03:04:39.294Z,26.52
2023-05-21T03:07:06.161Z,24.40
2023-05-21T03:09:32.604Z,24.00
2023-05-21T03:11:59.010Z,25.80
2023-05-21T03:14:25.408Z,24.30
2023-05-21T03:16:51.883Z,23.75
2023-05-21T03:19:18.386Z,25.67
2023-05-21T03:21:44.825Z,25.23
2023-05-21T03:24:13.568Z,25.17
2023-05-21T03:26:39.976Z,25.48
2023-05-21T03:29:06.366Z,30.75
2023-05-21T03:31:32.852Z,26.17
2023-05-21T03:33:59.267Z,26.83
2023-05-21T03:36:25.761Z,25.40
2023-05-21T03:38:52.170Z,25.52
2023-05-21T03:41:18.624Z,27.25
2023-05-21T03:43:45.081Z,26.45
2023-05-21T03:46:11.538Z,27.83
2023-05-21T03:48:37.986Z,27.05
2023-05-21T03:51:04.405Z,27.17
2023-05-21T03:53:30.889Z,27.23
2023-05-21T03:55:57.302Z,29.45
2023-05-21T03:58:24.025Z,27.35
2023-05-21T04:00:50.936Z,27.63
2023-05-21T04:03:18.118Z,28.58
2023-05-21T04:05:44.850Z,29.67
2023-05-21T04:08:11.297Z,26.92
2023-05-21T04:10:37.714Z,28.48
2023-05-21T04:13:04.109Z,27.33
2023-05-21T04:15:30.565Z,27.63
2023-05-21T04:17:57.156Z,27.52
2023-05-21T04:20:23.600Z,27.25
2023-05-21T04:22:50.047Z,27.50
2023-05-21T04:25:16.448Z,27.92
2023-05-21T04:27:43.567Z,27.75
2023-05-21T04:30:11.140Z,26.08
2023-05-21T04:32:38.556Z,27.65
2023-05-21T04:35:05.599Z,27.80
2023-05-21T04:37:35.027Z,27.88
2023-05-21T04:40:04.339Z,26.60
2023-05-21T04:42:32.856Z,27.52
2023-05-21T04:44:59.323Z,26.42
2023-05-21T04:47:25.808Z,26.77
2023-05-21T04:49:53.422Z,26.33
2023-05-21T04:52:19.848Z,27.83
2023-05-21T04:54:47.756Z,27.33
2023-05-21T04:57:14.252Z,25.65
2023-05-21T04:59:41.393Z,27.90
2023-05-21T05:02:07.827Z,27.20
2023-05-21T05:04:34.269Z,27.08
2023-05-21T05:07:00.709Z,26.45
2023-05-21T05:09:27.135Z,25.80
2023-05-21T05:11:53.554Z,27.10
2023-05-21T05:14:19.963Z,25.65
2023-05-21T05:16:48.270Z,26.48
2023-05-21T05:19:14.840Z,26.50
2023-05-21T05:21:41.323Z,25.48
2023-05-21T05:24:07.722Z,25.38
2023-05-21T05:26:34.126Z,27.30
2023-05-21T05:29:01.767Z,26.15
2023-05-21T05:31:28.237Z,25.20
2023-05-21T05:33:55.235Z,25.75
2023-05-21T05:36:22.484Z,26.80
2023-05-21T05:38:48.892Z,25.27
2023-05-21T05:41:15.432Z,25.15
2023-05-21T05:43:41.837Z,25.38
2023-05-21T05:46:08.291Z,24.60
2023-05-21T05:48:34.727Z,23.92
2023-05-21T05:51:01.427Z,26.50
2023-05-21T05:53:27.889Z,22.88
2023-05-21T05:55:54.278Z,22.98
2023-05-21T05:58:20.686Z,25.27
2023-05-21T06:00:47.131Z,24.23
2023-05-21T06:03:13.994Z,23.73
2023-05-21T06:05:40.702Z,23.27
2023-05-21T06:08:07.341Z,22.83
2023-05-21T06:10:33.755Z,23.33
2023-05-21T06:13:00.210Z,23.02
2023-05-21T06:15:26.651Z,24.83
2023-05-21T06:17:53.087Z,22.30
2023-05-21T06:20:19.514Z,21.63
2023-05-21T06:22:45.952Z,21.27
2023-05-21T06:25:12.358Z,21.25
2023-05-21T06:27:38.882Z,21.33
2023-05-21T06:30:07.518Z,23.60
2023-05-21T06:32:34.213Z,20.45
2023-05-21T06:35:01.130Z,21.13
2023-05-21T06:37:27.523Z,20.90
2023-05-21T06:39:53.967Z,21.73
2023-05-21T06:42:20.499Z,21.38
2023-05-21T06:44:46.904Z,21.85
2023-05-21T06:47:13.327Z,20.15
2023-05-21T06:49:39.800Z,21.40
2023-05-21T06:52:06.474Z,20.92
2023-05-21T06:54:32.990Z,21.27
2023-05-21T06:56:59.459Z,20.83
2023-05-21T06:59:26.310Z,20.58
2023-05-21T07:01:52.788Z,22.08
2023-05-21T07:04:19.200Z,22.30
2023-05-21T07:06:45.652Z,20.83
2023-05-21T07:09:12.129Z,19.20
2023-05-21T07:11:38.886Z,20.83
2023-05-21T07:14:05.526Z,19.75
2023-05-21T07:16:31.979Z,19.15
2023-05-21T07:18:58.481Z,18.55
2023-05-21T07:21:24.918Z,19.38
2023-05-21T07:23:51.322Z,18.45
2023-05-21T07:26:17.843Z,18.95
2023-05-21T07:28:45.068Z,18.95
2023-05-21T07:31:12.393Z,19.17
2023-05-21T07:33:39.045Z,16.77
2023-05-21T07:36:06.121Z,17.63
2023-05-21T07:38:32.574Z,17.42
2023-05-21T07:40:59.095Z,16.25
2023-05-21T07:43:25.661Z,19.27
2023-05-21T07:45:52.233Z,16.27
2023-05-21T07:48:18.800Z,15.82
2023-05-21T07:50:45.370Z,15.70
2023-05-21T07:53:11.796Z,15.88
2023-05-21T07:55:38.529Z,17.55
2023-05-21T07:58:05.710Z,15.18
2023-05-21T08:00:42.817Z,15.75
2023-05-21T08:03:09.324Z,18.23
2023-05-21T08:05:36.002Z,14.27
2023-05-21T08:08:02.575Z,15.02
2023-05-21T08:10:28.991Z,14.55
2023-05-21T08:12:55.455Z,14.15
2023-05-21T08:15:22.371Z,16.20
2023-05-21T08:17:48.830Z,15.00
2023-05-21T08:20:15.449Z,15.40
2023-05-21T08:22:43.236Z,17.15
2023-05-21T08:25:09.895Z,18.38
2023-05-21T08:27:36.546Z,15.93
2023-05-21T08:30:03.126Z,21.25
2023-05-21T08:32:29.659Z,15.93
2023-05-21T08:34:57.538Z,16.08
2023-05-21T08:37:23.942Z,13.65
2023-05-21T08:39:50.375Z,16.83
2023-05-21T08:45:05.284Z,14.48
2023-05-21T08:47:34.851Z,12.27
2023-05-21T08:50:06.571Z,13.23
2023-05-21T08:52:33.152Z,16.20
2023-05-21T08:55:00.269Z,13.05
2023-05-21T08:57:27.349Z,11.60
2023-05-21T08:59:54.711Z,14.15
2023-05-21T09:02:21.337Z,12.48
2023-05-21T09:04:49.809Z,13.35
2023-05-21T09:07:17.009Z,13.93
2023-05-21T09:09:54.145Z,12.90
2023-05-21T09:12:20.760Z,13.68
2023-05-21T09:14:47.761Z,12.40
2023-05-21T09:17:15.256Z,14.60
2023-05-21T09:20:12.056Z,11.70
2023-05-21T09:22:41.876Z,10.95
2023-05-21T09:25:09.434Z,11.95
2023-05-21T09:27:36.342Z,10.68
2023-05-21T09:30:11.095Z,10.73
2023-05-21T09:32:38.445Z,15.02
2023-05-21T09:35:10.893Z,12.35
2023-05-21T09:37:45.024Z,10.75
2023-05-21T09:40:13.677Z,10.95
2023-05-21T09:42:40.881Z,13.50
2023-05-21T09:45:11.286Z,10.82
2023-05-21T09:47:43.467Z,10.98
2023-05-21T09:50:14.165Z,14.18
2023-05-21T09:52:42.147Z,10.07
2023-05-21T09:55:13.117Z,13.90
2023-05-21T09:57:44.150Z,15.15
2023-05-21T10:00:24.308Z,10.75
2023-05-21T10:02:55.818Z,11.57
2023-05-21T10:05:25.746Z,16.15
2023-05-21T10:07:58.712Z,27.60
2023-05-21T10:10:27.669Z,25.85
2023-05-21T10:13:10.032Z,12.38
2023-05-21T10:15:41.401Z,12.82
2023-05-21T10:18:10.316Z,13.55
2023-05-21T10:20:38.245Z,15.85
2023-05-21T10:23:05.361Z,13.38
2023-05-21T10:25:32.422Z,13.52
2023-05-21T10:27:58.815Z,15.65
2023-05-21T10:30:25.654Z,9.65
2023-05-21T10:32:52.203Z,12.05
2023-05-21T10:35:18.974Z,13.02
2023-05-21T10:37:45.907Z,14.95
2023-05-21T10:40:13.236Z,14.68
2023-05-21T10:43:11.152Z,10.57
2023-05-21T10:45:55.944Z,11.07
2023-05-21T10:48:52.915Z,9.20
2023-05-21T10:51:25.634Z,9.48
2023-05-21T10:54:18.969Z,11.60
2023-05-21T10:56:54.927Z,14.63
2023-05-21T10:59:36.489Z,10.68
2023-05-21T11:02:03.780Z,12.63
2023-05-21T11:04:30.374Z,8.32
2023-05-21T11:06:59.023Z,8.75
2023-05-21T11:09:26.962Z,8.63
2023-05-21T11:12:01.283Z,7.57
2023-05-21T11:14:36.178Z,8.32
2023-05-21T11:17:15.449Z,10.48
2023-05-21T11:19:43.874Z,9.57
2023-05-21T11:22:25.214Z,9.50
2023-05-21T11:24:52.715Z,13.48
2023-05-21T11:27:41.731Z,9.30
2023-05-21T11:30:10.482Z,9.20
2023-05-21T11:33:12.222Z,8.20
2023-05-21T11:36:02.264Z,15.75
2023-05-21T11:38:31.643Z,7.80
2023-05-21T11:41:03.513Z,8.65
2023-05-21T11:43:30.000Z,10.60
2023-05-21T11:45:56.639Z,7.47
2023-05-21T11:48:27.713Z,10.82
2023-05-21T11:50:54.938Z,13.82
2023-05-21T11:53:21.433Z,15.07
2023-05-21T11:55:47.909Z,15.93
2023-05-21T11:58:19.230Z,8.25
2023-05-21T12:00:45.749Z,9.80
2023-05-21T12:03:14.475Z,7.70
2023-05-21T12:05:48.462Z,8.45
2023-05-21T12:08:25.370Z,7.40
2023-05-21T12:10:59.171Z,8.25
2023-05-21T12:13:26.225Z,9.75
2023-05-21T12:15:54.218Z,9.52
2023-05-21T12:18:21.244Z,7.18
2023-05-21T12:20:47.818Z,10.52
2023-05-21T12:23:26.378Z,6.55
2023-05-21T12:25:53.830Z,5.80
2023-05-21T12:28:24.706Z,6.60
2023-05-21T12:30:51.450Z,7.85
2023-05-21T12:33:18.852Z,12.23
2023-05-21T12:35:48.808Z,9.70
2023-05-21T12:38:15.693Z,8.07
2023-05-21T12:40:43.630Z,11.00
2023-05-21T12:43:10.086Z,6.88
2023-05-21T12:45:39.449Z,8.13
2023-05-21T12:48:06.204Z,6.40
2023-05-21T12:50:33.012Z,8.20
2023-05-21T12:52:59.419Z,14.52
2023-05-21T12:55:26.248Z,9.27
2023-05-21T12:58:03.351Z,7.05
2023-05-21T13:00:29.795Z,10.38
2023-05-21T13:02:57.063Z,7.72
2023-05-21T13:05:23.544Z,11.07
2023-05-21T13:07:51.552Z,11.30
2023-05-21T13:10:18.275Z,9.10
2023-05-21T13:12:45.314Z,8.80
2023-05-21T13:15:11.943Z,5.82
2023-05-21T13:17:38.397Z,7.88
2023-05-21T13:20:12.616Z,9.13
2023-05-21T13:22:42.618Z,7.75
2023-05-21T13:25:12.748Z,7.95
2023-05-21T13:27:39.615Z,10.02
2023-05-21T13:30:07.364Z,9.98
2023-05-21T13:32:34.313Z,11.70
2023-05-21T13:35:00.911Z,6.30
2023-05-21T13:37:27.354Z,9.32
2023-05-21T13:39:53.751Z,14.48
2023-05-21T13:42:21.234Z,6.82
2023-05-21T13:44:47.958Z,10.38
2023-05-21T13:47:14.565Z,9.43
2023-05-21T13:49:41.098Z,8.32
2023-05-21T13:52:08.711Z,9.00
2023-05-21T13:54:36.084Z,14.13
2023-05-21T13:57:03.228Z,7.00
2023-05-21T13:59:31.882Z,9.40
2023-05-21T14:01:59.834Z,9.35
2023-05-21T14:04:26.251Z,10.82
2023-05-21T14:06:52.892Z,7.03
2023-05-21T14:09:19.577Z,10.48
2023-05-21T14:11:46.345Z,9.05
2023-05-21T14:14:18.667Z,9.55
2023-05-21T14:16:47.130Z,7.55
2023-05-21T14:19:14.351Z,9.23
2023-05-21T14:21:41.054Z,6.82
2023-05-21T14:24:07.736Z,12.25
2023-05-21T14:26:34.309Z,7.65
2023-05-21T14:29:02.638Z,8.35
2023-05-21T14:31:29.044Z,6.78
2023-05-21T14:33:55.518Z,6.78
2023-05-21T14:36:21.906Z,11.02
2023-05-21T14:38:48.307Z,6.35
2023-05-21T14:41:14.726Z,7.93
2023-05-21T14:43:41.150Z,7.53
2023-05-21T14:46:07.580Z,8.65
2023-05-21T14:48:34.105Z,6.70
2023-05-21T14:51:00.489Z,6.25
2023-05-21T14:53:27.051Z,7.40
2023-05-21T14:55:54.075Z,9.23
2023-05-21T14:58:20.538Z,8.60
2023-05-21T15:00:46.960Z,6.65
2023-05-21T15:03:13.519Z,6.07
2023-05-21T15:05:40.044Z,8.02
2023-05-21T15:08:08.044Z,9.95
2023-05-21T15:10:35.137Z,7.63
2023-05-21T15:13:02.335Z,9.55
2023-05-21T15:15:28.823Z,8.15
2023-05-21T15:17:57.011Z,6.78
2023-05-21T15:20:23.444Z,8.10
2023-05-21T15:22:49.926Z,13.75
2023-05-21T15:25:19.090Z,9.88
2023-05-21T15:27:45.646Z,10.23
2023-05-21T15:30:12.377Z,6.43
2023-05-21T15:32:38.766Z,7.70
2023-05-21T15:35:05.540Z,10.52
2023-05-21T15:37:33.038Z,8.95
2023-05-21T15:39:59.567Z,9.77
2023-05-21T15:42:26.004Z,7.93
2023-05-21T15:44:52.418Z,11.13
2023-05-21T15:47:19.289Z,10.05
2023-05-21T15:49:45.752Z,11.25
2023-05-21T15:52:12.198Z,7.68
2023-05-21T15:54:38.593Z,13.77
2023-05-21T15:57:05.136Z,9.00
2023-05-21T15:59:31.577Z,5.80
2023-05-21T16:01:58.008Z,5.15
2023-05-21T16:04:24.404Z,8.27
2023-05-21T16:06:50.802Z,7.60
2023-05-21T16:09:17.282Z,8.35
2023-05-21T16:11:46.367Z,10.25
2023-05-21T16:14:12.795Z,11.20
2023-05-21T16:16:39.213Z,9.40
2023-05-21T16:19:05.700Z,10.35
2023-05-21T16:21:32.924Z,4.95
2023-05-21T16:23:59.654Z,7.20
2023-05-21T16:26:26.075Z,6.75
2023-05-21T16:28:52.497Z,10.75
2023-05-21T16:31:18.905Z,8.45
2023-05-21T16:33:45.365Z,9.45
2023-05-21T16:36:11.901Z,11.52
2023-05-21T16:38:38.602Z,6.80
2023-05-21T16:41:05.029Z,6.75
2023-05-21T16:43:31.445Z,4.88
2023-05-21T16:45:57.893Z,8.00
2023-05-21T16:48:24.345Z,13.05
2023-05-21T16:50:50.769Z,14.43
2023-05-21T16:53:17.211Z,6.07
2023-05-21T16:55:43.874Z,11.90
2023-05-21T16:58:10.907Z,7.70
2023-05-21T17:00:37.583Z,7.40
2023-05-21T17:03:04.101Z,11.55
2023-05-21T17:05:30.778Z,10.75
2023-05-21T17:07:57.262Z,9.07
2023-05-21T17:10:24.757Z,9.82
2023-05-21T17:12:51.602Z,8.40
2023-05-21T17:15:18.086Z,9.57
2023-05-21T17:17:44.528Z,12.48
2023-05-21T17:20:11.492Z,8.23
2023-05-21T17:22:37.990Z,7.25
2023-05-21T17:25:04.798Z,10.95
2023-05-21T17:27:31.230Z,10.68
2023-05-21T17:29:57.644Z,7.82
2023-05-21T17:32:24.063Z,8.27
2023-05-21T17:34:50.514Z,9.80
2023-05-21T17:37:16.923Z,12.00
2023-05-21T17:39:43.347Z,16.83
2023-05-21T17:42:09.769Z,12.18
2023-05-21T17:44:36.296Z,25.85
2023-05-21T17:47:02.870Z,10.68
2023-05-21T17:49:29.407Z,5.85
2023-05-21T17:51:56.275Z,8.18
2023-05-21T17:54:22.685Z,10.65
2023-05-21T17:56:49.093Z,7.80
2023-05-21T17:59:16.539Z,6.85
2023-05-21T18:01:43.040Z,10.30
2023-05-21T18:04:10.804Z,8.57
2023-05-21T18:06:37.464Z,9.70
2023-05-21T18:09:04.075Z,9.80
2023-05-21T18:11:30.548Z,6.15
2023-05-21T18:13:56.971Z,12.98
2023-05-21T18:16:23.608Z,7.13
2023-05-21T18:18:50.111Z,7.05
2023-05-21T18:21:16.755Z,8.20
2023-05-21T18:23:43.180Z,9.23
2023-05-21T18:26:09.589Z,8.23
2023-05-21T18:28:36.136Z,9.63
2023-05-21T18:31:04.278Z,8.73
2023-05-21T18:33:31.072Z,10.35
2023-05-21T18:35:58.252Z,10.93
2023-05-21T18:38:24.967Z,9.93
2023-05-21T18:40:51.469Z,10.90
2023-05-21T18:43:18.137Z,11.63
2023-05-21T18:45:45.067Z,6.15
2023-05-21T18:48:14.486Z,7.10
2023-05-21T18:50:41.153Z,6.15
2023-05-21T18:53:07.686Z,7.07
2023-05-21T18:55:34.553Z,8.85
2023-05-21T18:58:01.259Z,21.80
2023-05-21T19:00:27.811Z,5.57
2023-05-21T19:02:55.229Z,7.40
2023-05-21T19:05:22.131Z,7.00
2023-05-21T19:07:48.631Z,5.97
2023-05-21T19:10:15.184Z,5.22
2023-05-21T19:12:43.383Z,8.15
2023-05-21T19:15:10.485Z,7.60
2023-05-21T19:17:38.965Z,8.57
2023-05-21T19:20:09.084Z,8.82
2023-05-21T19:22:37.076Z,7.50
2023-05-21T19:25:04.099Z,6.50
2023-05-21T19:27:30.533Z,7.82
2023-05-21T19:29:56.991Z,8.55
2023-05-21T19:32:26.460Z,6.53
2023-05-21T19:34:52.917Z,7.57
2023-05-21T19:37:19.341Z,6.00
2023-05-21T19:39:49.584Z,7.03
2023-05-21T19:42:17.370Z,4.93
2023-05-21T19:44:43.911Z,7.95
2023-05-21T19:47:10.614Z,6.10
2023-05-21T19:49:37.075Z,4.90
2023-05-21T19:52:04.740Z,15.02
2023-05-21T19:54:31.186Z,8.15
2023-05-21T19:56:57.692Z,8.25
2023-05-21T19:59:24.136Z,5.60
2023-05-21T20:01:50.568Z,7.85
2023-05-21T20:04:17.146Z,9.10
2023-05-21T20:06:43.628Z,6.75
2023-05-21T20:09:12.553Z,6.63
2023-05-21T20:11:39.084Z,7.70
2023-05-21T20:14:05.566Z,8.68
2023-05-21T20:16:31.984Z,5.50
2023-05-21T20:18:58.543Z,9.82
2023-05-21T20:21:25.084Z,10.57
2023-05-21T20:23:51.491Z,11.02
2023-05-21T20:26:19.065Z,6.03
2023-05-21T20:28:48.318Z,6.68
2023-05-21T20:31:14.779Z,8.23
2023-05-21T20:33:41.226Z,5.38
2023-05-21T20:36:07.969Z,9.23
2023-05-21T20:38:37.157Z,10.38
2023-05-21T20:41:04.448Z,11.02
2023-05-21T20:43:30.849Z,7.47
2023-05-21T20:45:59.730Z,7.82
2023-05-21T20:48:31.793Z,7.80
2023-05-21T20:50:59.416Z,7.57
2023-05-21T20:53:25.983Z,11.65
2023-05-21T20:55:54.535Z,9.88
2023-05-21T20:58:22.417Z,10.00
2023-05-21T21:00:50.370Z,6.63
2023-05-21T21:03:17.839Z,5.97
2023-05-21T21:05:44.932Z,7.38
2023-05-21T21:08:12.252Z,6.15
2023-05-21T21:10:41.200Z,6.97
2023-05-21T21:13:09.836Z,9.80
2023-05-21T21:15:36.464Z,7.20
2023-05-21T21:18:03.566Z,6.85
2023-05-21T21:20:30.067Z,7.65
2023-05-21T21:22:56.489Z,7.47
2023-05-21T21:25:22.922Z,8.50
2023-05-21T21:27:49.350Z,6.32
2023-05-21T21:30:15.804Z,11.88
2023-05-21T21:32:42.299Z,9.18
2023-05-21T21:35:09.927Z,10.63
2023-05-21T21:37:36.335Z,5.95
2023-05-21T21:40:02.900Z,6.03
2023-05-21T21:42:29.315Z,9.10
2023-05-21T21:44:55.725Z,9.05
2023-05-21T21:47:22.176Z,10.18
2023-05-21T21:49:49.135Z,6.50
2023-05-21T21:52:17.328Z,6.10
2023-05-21T21:54:43.771Z,7.18
2023-05-21T21:57:10.287Z,6.10
2023-05-21T21:59:38.432Z,12.65
2023-05-21T22:02:05.004Z,7.75
2023-05-21T22:04:31.433Z,9.10
2023-05-21T22:06:57.851Z,9.57
2023-05-21T22:09:24.314Z,7.68
2023-05-21T22:11:50.818Z,12.05
2023-05-21T22:14:18.225Z,5.93
2023-05-21T22:16:45.130Z,8.50
2023-05-21T22:19:12.906Z,6.22
2023-05-21T22:21:39.380Z,10.07
2023-05-21T22:24:06.176Z,6.22
2023-05-21T22:26:32.562Z,10.35
2023-05-21T22:28:59.255Z,7.03
2023-05-21T22:31:26.830Z,8.15
2023-05-21T22:33:53.275Z,12.60
2023-05-21T22:36:19.686Z,6.35
2023-05-21T22:38:46.240Z,6.03
2023-05-21T22:41:12.643Z,7.15
2023-05-21T22:43:39.201Z,4.78
2023-05-21T22:46:05.788Z,7.45
2023-05-21T22:48:32.258Z,6.05
2023-05-21T22:50:58.676Z,5.47
2023-05-21T22:53:25.634Z,6.30
2023-05-21T22:55:52.050Z,6.07
2023-05-21T22:58:18.951Z,7.13
2023-05-21T23:00:46.390Z,5.78
2023-05-21T23:03:13.311Z,6.75
2023-05-21T23:05:39.993Z,7.20
2023-05-21T23:08:06.689Z,6.15
2023-05-21T23:10:33.969Z,5.28
2023-05-21T23:13:00.407Z,7.35
2023-05-21T23:15:29.449Z,9.05
2023-05-21T23:17:57.092Z,6.22
2023-05-21T23:20:24.564Z,6.38
2023-05-21T23:22:50.966Z,7.13
2023-05-21T23:25:17.753Z,5.88
2023-05-21T23:27:44.193Z,4.57
2023-05-21T23:30:11.945Z,9.95
2023-05-21T23:32:38.574Z,12.25
2023-05-21T23:35:05.462Z,6.60
2023-05-21T23:37:31.911Z,5.43
2023-05-21T23:39:58.329Z,7.75
2023-05-21T23:42:24.770Z,6.38
2023-05-21T23:44:51.176Z,9.07
2023-05-21T23:47:17.569Z,4.53
2023-05-21T23:49:43.987Z,6.45
2023-05-21T23:52:13.012Z,7.13
2023-05-21T23:54:39.458Z,7.22
2023-05-21T23:57:06.324Z,5.93
2023-05-21T23:59:32.779Z,5.88
